sensor_id;sensor_type;location;lat;lon;timestamp;temperature;humidity
20590;DHT22;10453;50.810;12.540;2023-09-30T00:03:13;17.00;99.90
20590;DHT22;10453;50.810;12.540;2023-09-30T00:07:31;16.70;99.90
20590;DHT22;10453;50.810;12.540;2023-09-30T00:11:49;16.60;99.90
20590;DHT22;10453;50.810;12.540;2023-09-30T00:16:06;16.40;99.90
20590;DHT22;10453;50.810;12.540;2023-09-30T00:20:24;16.50;99.90
20590;DHT22;10453;50.810;12.540;2023-09-30T00:24:42;16.50;99.90
20590;DHT22;10453;50.810;12.540;2023-09-30T00:28:59;16.40;99.90
20590;DHT22;10453;50.810;12.540;2023-09-30T00:33:17;16.40;99.90
20590;DHT22;10453;50.810;12.540;2023-09-30T00:37:34;16.30;99.90
20590;DHT22;10453;50.810;12.540;2023-09-30T00:41:52;16.00;99.90
20590;DHT22;10453;50.810;12.540;2023-09-30T00:46:25;15.60;99.90
20590;DHT22;10453;50.810;12.540;2023-09-30T00:50:44;15.50;99.90
20590;DHT22;10453;50.810;12.540;2023-09-30T00:55:02;15.40;99.90
20590;DHT22;10453;50.810;12.540;2023-09-30T00:59:23;15.30;99.90
20590;DHT22;10453;50.810;12.540;2023-09-30T01:03:45;15.20;99.90
20590;DHT22;10453;50.810;12.540;2023-09-30T01:08:04;15.20;99.90
20590;DHT22;10453;50.810;12.540;2023-09-30T01:12:21;15.10;99.90
20590;DHT22;10453;50.810;12.540;2023-09-30T01:16:39;15.10;99.90
20590;DHT22;10453;50.810;12.540;2023-09-30T01:20:59;15.10;99.90
20590;DHT22;10453;50.810;12.540;2023-09-30T01:25:16;15.00;99.90
20590;DHT22;10453;50.810;12.540;2023-09-30T01:29:34;14.90;99.90
20590;DHT22;10453;50.810;12.540;2023-09-30T01:33:52;14.80;99.90
20590;DHT22;10453;50.810;12.540;2023-09-30T01:38:12;14.80;99.90
20590;DHT22;10453;50.810;12.540;2023-09-30T01:42:29;14.60;99.90
20590;DHT22;10453;50.810;12.540;2023-09-30T01:46:47;14.40;99.90
20590;DHT22;10453;50.810;12.540;2023-09-30T01:51:05;14.40;99.90
20590;DHT22;10453;50.810;12.540;2023-09-30T01:55:23;14.30;99.90
20590;DHT22;10453;50.810;12.540;2023-09-30T01:59:41;14.30;99.90
20590;DHT22;10453;50.810;12.540;2023-09-30T02:03:58;14.30;99.90
20590;DHT22;10453;50.810;12.540;2023-09-30T02:08:16;14.30;99.90
20590;DHT22;10453;50.810;12.540;2023-09-30T02:12:35;14.30;99.90
20590;DHT22;10453;50.810;12.540;2023-09-30T02:16:55;14.30;99.90
20590;DHT22;10453;50.810;12.540;2023-09-30T02:21:15;14.30;99.90
20590;DHT22;10453;50.810;12.540;2023-09-30T02:25:33;14.30;99.90
20590;DHT22;10453;50.810;12.540;2023-09-30T02:29:51;14.30;99.90
20590;DHT22;10453;50.810;12.540;2023-09-30T02:34:10;14.40;99.90
20590;DHT22;10453;50.810;12.540;2023-09-30T02:38:28;14.40;99.90
20590;DHT22;10453;50.810;12.540;2023-09-30T02:42:46;14.40;99.90
20590;DHT22;10453;50.810;12.540;2023-09-30T02:47:04;14.40;99.90
20590;DHT22;10453;50.810;12.540;2023-09-30T02:51:22;14.40;99.90
20590;DHT22;10453;50.810;12.540;2023-09-30T02:55:40;14.40;99.90
20590;DHT22;10453;50.810;12.540;2023-09-30T02:59:59;14.40;99.90
20590;DHT22;10453;50.810;12.540;2023-09-30T03:04:18;14.40;99.90
20590;DHT22;10453;50.810;12.540;2023-09-30T03:08:37;14.40;99.90
20590;DHT22;10453;50.810;12.540;2023-09-30T03:12:57;14.30;99.90
20590;DHT22;10453;50.810;12.540;2023-09-30T03:17:21;14.30;99.90
20590;DHT22;10453;50.810;12.540;2023-09-30T03:21:39;14.10;99.90
20590;DHT22;10453;50.810;12.540;2023-09-30T03:25:58;14.00;99.90
20590;DHT22;10453;50.810;12.540;2023-09-30T03:30:16;13.90;99.90
20590;DHT22;10453;50.810;12.540;2023-09-30T03:34:34;14.10;99.90
20590;DHT22;10453;50.810;12.540;2023-09-30T03:38:53;14.00;99.90
20590;DHT22;10453;50.810;12.540;2023-09-30T03:43:16;13.80;99.90
20590;DHT22;10453;50.810;12.540;2023-09-30T03:47:37;13.70;99.90
20590;DHT22;10453;50.810;12.540;2023-09-30T03:51:55;13.50;99.90
20590;DHT22;10453;50.810;12.540;2023-09-30T03:56:12;13.50;99.90
20590;DHT22;10453;50.810;12.540;2023-09-30T04:00:30;13.50;99.90
20590;DHT22;10453;50.810;12.540;2023-09-30T04:04:48;13.60;99.90
20590;DHT22;10453;50.810;12.540;2023-09-30T04:09:08;13.50;99.90
20590;DHT22;10453;50.810;12.540;2023-09-30T04:13:28;13.40;99.90
20590;DHT22;10453;50.810;12.540;2023-09-30T04:17:48;13.40;99.90
20590;DHT22;10453;50.810;12.540;2023-09-30T04:22:05;13.40;99.90
20590;DHT22;10453;50.810;12.540;2023-09-30T04:26:23;13.30;99.90
20590;DHT22;10453;50.810;12.540;2023-09-30T04:30:40;13.20;99.90
20590;DHT22;10453;50.810;12.540;2023-09-30T04:34:58;13.20;99.90
20590;DHT22;10453;50.810;12.540;2023-09-30T04:39:20;13.20;99.90
20590;DHT22;10453;50.810;12.540;2023-09-30T04:43:37;13.10;99.90
20590;DHT22;10453;50.810;12.540;2023-09-30T04:47:56;13.00;99.90
20590;DHT22;10453;50.810;12.540;2023-09-30T04:52:13;13.00;99.90
20590;DHT22;10453;50.810;12.540;2023-09-30T04:56:31;12.90;99.90
20590;DHT22;10453;50.810;12.540;2023-09-30T05:00:48;12.90;99.90
20590;DHT22;10453;50.810;12.540;2023-09-30T05:05:06;12.80;99.90
20590;DHT22;10453;50.810;12.540;2023-09-30T05:09:25;12.70;99.90
20590;DHT22;10453;50.810;12.540;2023-09-30T05:13:43;12.60;99.90
20590;DHT22;10453;50.810;12.540;2023-09-30T05:18:00;12.60;99.90
20590;DHT22;10453;50.810;12.540;2023-09-30T05:22:18;12.60;99.90
20590;DHT22;10453;50.810;12.540;2023-09-30T05:26:40;12.60;99.90
20590;DHT22;10453;50.810;12.540;2023-09-30T05:30:57;12.60;99.90
20590;DHT22;10453;50.810;12.540;2023-09-30T05:35:15;12.50;99.90
20590;DHT22;10453;50.810;12.540;2023-09-30T05:39:35;12.60;99.90
20590;DHT22;10453;50.810;12.540;2023-09-30T05:43:52;12.60;99.90
20590;DHT22;10453;50.810;12.540;2023-09-30T05:48:13;12.60;99.90
20590;DHT22;10453;50.810;12.540;2023-09-30T05:52:30;12.50;99.90
20590;DHT22;10453;50.810;12.540;2023-09-30T05:56:48;12.40;99.90
20590;DHT22;10453;50.810;12.540;2023-09-30T06:01:09;12.40;99.90
20590;DHT22;10453;50.810;12.540;2023-09-30T06:05:32;12.40;99.90
20590;DHT22;10453;50.810;12.540;2023-09-30T06:09:50;12.50;99.90
20590;DHT22;10453;50.810;12.540;2023-09-30T06:14:08;12.50;99.90
20590;DHT22;10453;50.810;12.540;2023-09-30T06:18:26;12.50;99.90
20590;DHT22;10453;50.810;12.540;2023-09-30T06:22:47;12.50;99.90
20590;DHT22;10453;50.810;12.540;2023-09-30T06:27:06;12.50;99.90
20590;DHT22;10453;50.810;12.540;2023-09-30T06:31:23;12.60;99.90
20590;DHT22;10453;50.810;12.540;2023-09-30T06:36:01;12.80;99.90
20590;DHT22;10453;50.810;12.540;2023-09-30T06:40:20;13.10;99.90
20590;DHT22;10453;50.810;12.540;2023-09-30T06:44:38;13.30;99.90
20590;DHT22;10453;50.810;12.540;2023-09-30T06:48:56;13.40;99.90
20590;DHT22;10453;50.810;12.540;2023-09-30T06:53:16;13.50;99.90
20590;DHT22;10453;50.810;12.540;2023-09-30T06:57:37;13.50;99.90
20590;DHT22;10453;50.810;12.540;2023-09-30T07:01:55;13.60;99.90
20590;DHT22;10453;50.810;12.540;2023-09-30T07:06:22;13.70;99.90
20590;DHT22;10453;50.810;12.540;2023-09-30T07:10:44;13.70;99.90
20590;DHT22;10453;50.810;12.540;2023-09-30T07:15:04;13.90;99.90
20590;DHT22;10453;50.810;12.540;2023-09-30T07:19:22;14.10;99.90
20590;DHT22;10453;50.810;12.540;2023-09-30T07:23:39;14.10;99.90
20590;DHT22;10453;50.810;12.540;2023-09-30T07:27:58;14.10;99.90
20590;DHT22;10453;50.810;12.540;2023-09-30T07:32:17;14.20;99.90
20590;DHT22;10453;50.810;12.540;2023-09-30T07:36:35;14.20;99.90
20590;DHT22;10453;50.810;12.540;2023-09-30T07:40:52;14.30;99.90
20590;DHT22;10453;50.810;12.540;2023-09-30T07:45:10;14.40;99.90
20590;DHT22;10453;50.810;12.540;2023-09-30T07:49:29;14.50;99.90
20590;DHT22;10453;50.810;12.540;2023-09-30T07:53:46;14.70;99.90
20590;DHT22;10453;50.810;12.540;2023-09-30T07:58:04;14.70;99.90
20590;DHT22;10453;50.810;12.540;2023-09-30T08:02:21;14.80;99.90
20590;DHT22;10453;50.810;12.540;2023-09-30T08:06:39;14.60;99.90
20590;DHT22;10453;50.810;12.540;2023-09-30T08:10:57;14.90;99.90
20590;DHT22;10453;50.810;12.540;2023-09-30T08:15:14;14.80;99.90
20590;DHT22;10453;50.810;12.540;2023-09-30T08:19:32;14.80;99.90
20590;DHT22;10453;50.810;12.540;2023-09-30T08:23:49;14.90;99.90
20590;DHT22;10453;50.810;12.540;2023-09-30T08:28:07;15.10;99.90
20590;DHT22;10453;50.810;12.540;2023-09-30T08:32:27;15.30;99.90
20590;DHT22;10453;50.810;12.540;2023-09-30T08:36:44;15.40;99.90
20590;DHT22;10453;50.810;12.540;2023-09-30T08:41:03;15.40;99.90
20590;DHT22;10453;50.810;12.540;2023-09-30T08:45:21;15.50;99.90
20590;DHT22;10453;50.810;12.540;2023-09-30T08:49:38;15.40;99.90
20590;DHT22;10453;50.810;12.540;2023-09-30T08:53:58;15.70;99.90
20590;DHT22;10453;50.810;12.540;2023-09-30T08:58:17;15.80;99.90
20590;DHT22;10453;50.810;12.540;2023-09-30T09:02:35;15.80;99.90
20590;DHT22;10453;50.810;12.540;2023-09-30T09:06:54;15.90;99.90
20590;DHT22;10453;50.810;12.540;2023-09-30T09:11:12;16.00;99.90
20590;DHT22;10453;50.810;12.540;2023-09-30T09:15:31;16.40;99.90
20590;DHT22;10453;50.810;12.540;2023-09-30T09:19:59;16.90;99.90
20590;DHT22;10453;50.810;12.540;2023-09-30T09:24:27;16.50;99.90
20590;DHT22;10453;50.810;12.540;2023-09-30T09:28:44;16.00;99.90
20590;DHT22;10453;50.810;12.540;2023-09-30T09:33:06;16.10;99.90
20590;DHT22;10453;50.810;12.540;2023-09-30T09:37:23;16.90;99.90
20590;DHT22;10453;50.810;12.540;2023-09-30T09:41:54;17.40;99.90
20590;DHT22;10453;50.810;12.540;2023-09-30T09:46:13;18.10;99.90
20590;DHT22;10453;50.810;12.540;2023-09-30T09:50:45;17.90;99.90
20590;DHT22;10453;50.810;12.540;2023-09-30T09:55:04;18.90;99.90
20590;DHT22;10453;50.810;12.540;2023-09-30T09:59:23;19.60;99.90
20590;DHT22;10453;50.810;12.540;2023-09-30T10:03:41;20.10;99.90
20590;DHT22;10453;50.810;12.540;2023-09-30T10:08:10;20.10;99.90
20590;DHT22;10453;50.810;12.540;2023-09-30T10:12:36;20.10;99.90
20590;DHT22;10453;50.810;12.540;2023-09-30T10:16:56;19.70;99.90
20590;DHT22;10453;50.810;12.540;2023-09-30T10:21:14;19.10;99.90
20590;DHT22;10453;50.810;12.540;2023-09-30T10:25:34;19.30;99.90
20590;DHT22;10453;50.810;12.540;2023-09-30T10:30:14;19.70;99.90
20590;DHT22;10453;50.810;12.540;2023-09-30T10:34:31;21.10;99.90
20590;DHT22;10453;50.810;12.540;2023-09-30T10:38:49;21.60;99.90
20590;DHT22;10453;50.810;12.540;2023-09-30T10:43:37;22.20;99.90
20590;DHT22;10453;50.810;12.540;2023-09-30T10:47:55;21.90;99.90
20590;DHT22;10453;50.810;12.540;2023-09-30T10:52:22;21.40;99.90
20590;DHT22;10453;50.810;12.540;2023-09-30T10:56:40;22.50;99.90
20590;DHT22;10453;50.810;12.540;2023-09-30T11:00:57;21.70;99.90
20590;DHT22;10453;50.810;12.540;2023-09-30T11:05:15;20.10;99.90
20590;DHT22;10453;50.810;12.540;2023-09-30T11:09:33;21.50;99.90
20590;DHT22;10453;50.810;12.540;2023-09-30T11:13:51;20.50;99.90
20590;DHT22;10453;50.810;12.540;2023-09-30T11:18:18;20.10;99.90
20590;DHT22;10453;50.810;12.540;2023-09-30T11:22:35;21.40;99.90
20590;DHT22;10453;50.810;12.540;2023-09-30T11:26:53;21.90;99.90
20590;DHT22;10453;50.810;12.540;2023-09-30T11:31:13;22.30;99.90
20590;DHT22;10453;50.810;12.540;2023-09-30T11:35:32;22.00;99.90
20590;DHT22;10453;50.810;12.540;2023-09-30T11:39:49;21.90;95.90
20590;DHT22;10453;50.810;12.540;2023-09-30T11:44:10;21.30;96.30
20590;DHT22;10453;50.810;12.540;2023-09-30T11:48:30;21.60;99.90
20590;DHT22;10453;50.810;12.540;2023-09-30T11:52:48;22.10;99.70
20590;DHT22;10453;50.810;12.540;2023-09-30T11:57:06;22.50;96.30
20590;DHT22;10453;50.810;12.540;2023-09-30T12:01:26;21.80;94.60
20590;DHT22;10453;50.810;12.540;2023-09-30T12:05:48;22.20;94.90
20590;DHT22;10453;50.810;12.540;2023-09-30T12:10:06;22.00;95.20
20590;DHT22;10453;50.810;12.540;2023-09-30T12:14:24;22.10;91.00
20590;DHT22;10453;50.810;12.540;2023-09-30T12:18:42;22.90;92.00
20590;DHT22;10453;50.810;12.540;2023-09-30T12:22:59;23.50;88.50
20590;DHT22;10453;50.810;12.540;2023-09-30T12:27:17;23.30;90.40
20590;DHT22;10453;50.810;12.540;2023-09-30T12:31:35;23.40;84.60
20590;DHT22;10453;50.810;12.540;2023-09-30T12:36:09;22.80;82.10
20590;DHT22;10453;50.810;12.540;2023-09-30T12:40:26;22.80;81.30
20590;DHT22;10453;50.810;12.540;2023-09-30T12:44:45;22.60;84.50
20590;DHT22;10453;50.810;12.540;2023-09-30T12:49:04;22.20;80.70
20590;DHT22;10453;50.810;12.540;2023-09-30T12:53:21;22.50;81.60
20590;DHT22;10453;50.810;12.540;2023-09-30T12:57:39;22.00;82.20
20590;DHT22;10453;50.810;12.540;2023-09-30T13:01:56;21.90;83.60
20590;DHT22;10453;50.810;12.540;2023-09-30T13:06:14;22.50;81.00
20590;DHT22;10453;50.810;12.540;2023-09-30T13:10:33;22.50;80.70
20590;DHT22;10453;50.810;12.540;2023-09-30T13:14:50;22.30;79.60
20590;DHT22;10453;50.810;12.540;2023-09-30T13:19:08;22.00;79.10
20590;DHT22;10453;50.810;12.540;2023-09-30T13:23:26;22.10;78.50
20590;DHT22;10453;50.810;12.540;2023-09-30T13:27:48;21.30;75.40
20590;DHT22;10453;50.810;12.540;2023-09-30T13:32:05;20.30;84.20
20590;DHT22;10453;50.810;12.540;2023-09-30T13:36:23;19.70;84.30
20590;DHT22;10453;50.810;12.540;2023-09-30T13:40:42;19.40;87.00
20590;DHT22;10453;50.810;12.540;2023-09-30T13:45:00;19.40;89.20
20590;DHT22;10453;50.810;12.540;2023-09-30T13:49:17;19.30;88.70
20590;DHT22;10453;50.810;12.540;2023-09-30T13:53:35;19.20;87.40
20590;DHT22;10453;50.810;12.540;2023-09-30T13:57:52;19.10;91.10
20590;DHT22;10453;50.810;12.540;2023-09-30T14:02:10;19.00;91.60
20590;DHT22;10453;50.810;12.540;2023-09-30T14:06:27;19.10;93.20
20590;DHT22;10453;50.810;12.540;2023-09-30T14:10:47;18.90;93.00
20590;DHT22;10453;50.810;12.540;2023-09-30T14:15:07;18.60;94.90
20590;DHT22;10453;50.810;12.540;2023-09-30T14:19:25;18.60;94.70
20590;DHT22;10453;50.810;12.540;2023-09-30T14:23:43;18.70;94.40
20590;DHT22;10453;50.810;12.540;2023-09-30T14:28:00;18.60;94.30
20590;DHT22;10453;50.810;12.540;2023-09-30T14:32:18;18.60;95.80
20590;DHT22;10453;50.810;12.540;2023-09-30T14:36:36;18.50;97.00
20590;DHT22;10453;50.810;12.540;2023-09-30T14:40:55;18.70;98.60
20590;DHT22;10453;50.810;12.540;2023-09-30T14:45:12;18.60;96.80
20590;DHT22;10453;50.810;12.540;2023-09-30T14:49:33;18.60;99.90
20590;DHT22;10453;50.810;12.540;2023-09-30T14:53:51;18.50;99.10
20590;DHT22;10453;50.810;12.540;2023-09-30T14:58:08;18.40;99.50
20590;DHT22;10453;50.810;12.540;2023-09-30T15:02:27;18.60;95.70
20590;DHT22;10453;50.810;12.540;2023-09-30T15:06:44;18.50;96.50
20590;DHT22;10453;50.810;12.540;2023-09-30T15:11:03;18.50;95.30
20590;DHT22;10453;50.810;12.540;2023-09-30T15:15:20;18.50;95.90
20590;DHT22;10453;50.810;12.540;2023-09-30T15:19:38;18.50;94.80
20590;DHT22;10453;50.810;12.540;2023-09-30T15:23:55;18.50;98.00
20590;DHT22;10453;50.810;12.540;2023-09-30T15:28:13;18.40;94.70
20590;DHT22;10453;50.810;12.540;2023-09-30T15:32:33;18.30;94.90
20590;DHT22;10453;50.810;12.540;2023-09-30T15:36:50;18.00;97.30
20590;DHT22;10453;50.810;12.540;2023-09-30T15:41:12;18.20;99.40
20590;DHT22;10453;50.810;12.540;2023-09-30T15:45:30;18.10;98.40
20590;DHT22;10453;50.810;12.540;2023-09-30T15:49:48;18.10;99.20
20590;DHT22;10453;50.810;12.540;2023-09-30T15:54:05;18.10;99.90
20590;DHT22;10453;50.810;12.540;2023-09-30T15:58:23;18.10;99.90
20590;DHT22;10453;50.810;12.540;2023-09-30T16:02:41;17.90;99.90
20590;DHT22;10453;50.810;12.540;2023-09-30T16:07:00;17.80;99.90
20590;DHT22;10453;50.810;12.540;2023-09-30T16:11:27;17.60;99.90
20590;DHT22;10453;50.810;12.540;2023-09-30T16:15:45;17.40;99.90
20590;DHT22;10453;50.810;12.540;2023-09-30T16:20:03;17.40;99.90
20590;DHT22;10453;50.810;12.540;2023-09-30T16:24:26;17.30;99.90
20590;DHT22;10453;50.810;12.540;2023-09-30T16:28:43;17.00;99.90
20590;DHT22;10453;50.810;12.540;2023-09-30T16:33:00;16.60;99.90
20590;DHT22;10453;50.810;12.540;2023-09-30T16:37:18;16.40;99.90
20590;DHT22;10453;50.810;12.540;2023-09-30T16:41:36;16.10;99.90
20590;DHT22;10453;50.810;12.540;2023-09-30T16:45:59;15.70;99.90
20590;DHT22;10453;50.810;12.540;2023-09-30T16:50:17;15.30;99.90
20590;DHT22;10453;50.810;12.540;2023-09-30T16:54:34;15.00;99.90
20590;DHT22;10453;50.810;12.540;2023-09-30T16:58:52;14.60;99.90
20590;DHT22;10453;50.810;12.540;2023-09-30T17:03:12;14.30;99.90
20590;DHT22;10453;50.810;12.540;2023-09-30T17:07:30;14.00;99.90
20590;DHT22;10453;50.810;12.540;2023-09-30T17:11:48;13.80;99.90
20590;DHT22;10453;50.810;12.540;2023-09-30T17:16:05;13.60;99.90
20590;DHT22;10453;50.810;12.540;2023-09-30T17:20:23;13.40;99.90
20590;DHT22;10453;50.810;12.540;2023-09-30T17:24:41;13.10;99.90
20590;DHT22;10453;50.810;12.540;2023-09-30T17:28:59;13.00;99.90
20590;DHT22;10453;50.810;12.540;2023-09-30T17:33:16;12.80;99.90
20590;DHT22;10453;50.810;12.540;2023-09-30T17:37:33;12.50;99.90
20590;DHT22;10453;50.810;12.540;2023-09-30T17:41:51;12.40;99.90
20590;DHT22;10453;50.810;12.540;2023-09-30T17:46:15;12.20;99.90
20590;DHT22;10453;50.810;12.540;2023-09-30T17:50:35;12.00;99.90
20590;DHT22;10453;50.810;12.540;2023-09-30T17:54:53;11.80;99.90
20590;DHT22;10453;50.810;12.540;2023-09-30T17:59:10;11.70;99.90
20590;DHT22;10453;50.810;12.540;2023-09-30T18:03:29;11.50;99.90
20590;DHT22;10453;50.810;12.540;2023-09-30T18:07:46;11.40;99.90
20590;DHT22;10453;50.810;12.540;2023-09-30T18:12:04;11.40;99.90
20590;DHT22;10453;50.810;12.540;2023-09-30T18:16:22;11.30;99.90
20590;DHT22;10453;50.810;12.540;2023-09-30T18:20:42;11.20;99.90
20590;DHT22;10453;50.810;12.540;2023-09-30T18:25:00;11.20;99.90
20590;DHT22;10453;50.810;12.540;2023-09-30T18:29:23;11.00;99.90
20590;DHT22;10453;50.810;12.540;2023-09-30T18:34:22;10.90;99.90
20590;DHT22;10453;50.810;12.540;2023-09-30T18:38:45;10.70;99.90
20590;DHT22;10453;50.810;12.540;2023-09-30T18:43:07;10.50;99.90
20590;DHT22;10453;50.810;12.540;2023-09-30T18:47:34;10.40;99.90
20590;DHT22;10453;50.810;12.540;2023-09-30T18:52:17;10.30;99.90
20590;DHT22;10453;50.810;12.540;2023-09-30T18:56:34;10.30;99.90
20590;DHT22;10453;50.810;12.540;2023-09-30T19:00:51;10.20;99.90
20590;DHT22;10453;50.810;12.540;2023-09-30T19:05:14;10.20;99.90
20590;DHT22;10453;50.810;12.540;2023-09-30T19:09:31;10.20;99.90
20590;DHT22;10453;50.810;12.540;2023-09-30T19:14:32;10.10;99.90
20590;DHT22;10453;50.810;12.540;2023-09-30T19:18:41;10.00;99.90
20590;DHT22;10453;50.810;12.540;2023-09-30T19:23:12;9.90;99.90
20590;DHT22;10453;50.810;12.540;2023-09-30T19:27:34;9.90;99.90
20590;DHT22;10453;50.810;12.540;2023-09-30T19:31:52;9.80;99.90
20590;DHT22;10453;50.810;12.540;2023-09-30T19:36:11;9.70;99.90
20590;DHT22;10453;50.810;12.540;2023-09-30T19:40:29;9.50;99.90
20590;DHT22;10453;50.810;12.540;2023-09-30T19:44:48;9.40;99.90
20590;DHT22;10453;50.810;12.540;2023-09-30T19:49:11;9.50;99.90
20590;DHT22;10453;50.810;12.540;2023-09-30T19:54:25;9.40;99.90
20590;DHT22;10453;50.810;12.540;2023-09-30T19:58:44;9.30;99.90
20590;DHT22;10453;50.810;12.540;2023-09-30T20:03:03;9.30;99.90
20590;DHT22;10453;50.810;12.540;2023-09-30T20:07:21;9.20;99.90
20590;DHT22;10453;50.810;12.540;2023-09-30T20:11:44;9.10;99.90
20590;DHT22;10453;50.810;12.540;2023-09-30T20:16:54;9.10;99.90
20590;DHT22;10453;50.810;12.540;2023-09-30T20:21:20;9.10;99.90
20590;DHT22;10453;50.810;12.540;2023-09-30T20:25:41;9.10;99.90
20590;DHT22;10453;50.810;12.540;2023-09-30T20:29:59;8.90;99.90
20590;DHT22;10453;50.810;12.540;2023-09-30T20:34:17;8.90;99.90
20590;DHT22;10453;50.810;12.540;2023-09-30T20:38:36;8.80;99.90
20590;DHT22;10453;50.810;12.540;2023-09-30T20:42:56;8.80;99.90
20590;DHT22;10453;50.810;12.540;2023-09-30T20:47:17;8.70;99.90
20590;DHT22;10453;50.810;12.540;2023-09-30T20:51:36;8.70;99.90
20590;DHT22;10453;50.810;12.540;2023-09-30T20:55:54;8.70;99.90
20590;DHT22;10453;50.810;12.540;2023-09-30T21:00:11;8.70;99.90
20590;DHT22;10453;50.810;12.540;2023-09-30T21:04:30;8.70;99.90
20590;DHT22;10453;50.810;12.540;2023-09-30T21:08:48;8.70;99.90
20590;DHT22;10453;50.810;12.540;2023-09-30T21:13:08;8.70;99.90
20590;DHT22;10453;50.810;12.540;2023-09-30T21:17:25;8.60;99.90
20590;DHT22;10453;50.810;12.540;2023-09-30T21:21:45;8.70;99.90
20590;DHT22;10453;50.810;12.540;2023-09-30T21:26:02;8.60;99.90
20590;DHT22;10453;50.810;12.540;2023-09-30T21:30:27;8.50;99.90
20590;DHT22;10453;50.810;12.540;2023-09-30T21:34:53;8.40;99.90
20590;DHT22;10453;50.810;12.540;2023-09-30T21:39:12;8.30;99.90
20590;DHT22;10453;50.810;12.540;2023-09-30T21:43:31;8.20;99.90
20590;DHT22;10453;50.810;12.540;2023-09-30T21:47:48;8.20;99.90
20590;DHT22;10453;50.810;12.540;2023-09-30T21:52:06;8.20;99.90
20590;DHT22;10453;50.810;12.540;2023-09-30T21:56:24;8.20;99.90
20590;DHT22;10453;50.810;12.540;2023-09-30T22:00:41;8.30;99.90
20590;DHT22;10453;50.810;12.540;2023-09-30T22:04:59;8.30;99.90
20590;DHT22;10453;50.810;12.540;2023-09-30T22:09:17;8.20;99.90
20590;DHT22;10453;50.810;12.540;2023-09-30T22:13:34;8.20;99.90
20590;DHT22;10453;50.810;12.540;2023-09-30T22:17:52;8.20;99.90
20590;DHT22;10453;50.810;12.540;2023-09-30T22:22:29;8.20;99.90
20590;DHT22;10453;50.810;12.540;2023-09-30T22:27:09;8.30;99.90
20590;DHT22;10453;50.810;12.540;2023-09-30T22:31:59;8.30;99.90
20590;DHT22;10453;50.810;12.540;2023-09-30T22:41:46;8.50;99.90
20590;DHT22;10453;50.810;12.540;2023-09-30T22:46:57;8.70;99.90
20590;DHT22;10453;50.810;12.540;2023-09-30T22:52:10;8.80;99.90
20590;DHT22;10453;50.810;12.540;2023-09-30T22:56:44;8.90;99.90
20590;DHT22;10453;50.810;12.540;2023-09-30T23:01:22;8.80;99.90
20590;DHT22;10453;50.810;12.540;2023-09-30T23:11:19;8.80;99.90
20590;DHT22;10453;50.810;12.540;2023-09-30T23:16:22;8.80;99.90
20590;DHT22;10453;50.810;12.540;2023-09-30T23:20:54;8.80;99.90
20590;DHT22;10453;50.810;12.540;2023-09-30T23:26:00;8.80;99.90
20590;DHT22;10453;50.810;12.540;2023-09-30T23:31:06;8.80;99.90
20590;DHT22;10453;50.810;12.540;2023-09-30T23:35:25;8.90;99.90
20590;DHT22;10453;50.810;12.540;2023-09-30T23:39:47;8.90;99.90
20590;DHT22;10453;50.810;12.540;2023-09-30T23:44:05;9.00;99.90
20590;DHT22;10453;50.810;12.540;2023-09-30T23:48:24;9.10;99.90
20590;DHT22;10453;50.810;12.540;2023-09-30T23:52:46;9.00;99.90
20590;DHT22;10453;50.810;12.540;2023-09-30T23:57:08;9.10;99.90
